createdAt,value
2018-09-13T00:00:04.891Z,15.40
2018-09-13T00:02:32.448Z,15.30
2018-09-13T00:04:59.964Z,15.40
2018-09-13T00:07:27.551Z,15.40
2018-09-13T00:09:56.195Z,15.40
2018-09-13T00:12:23.714Z,15.40
2018-09-13T00:14:51.232Z,15.50
2018-09-13T00:17:18.775Z,15.60
2018-09-13T00:19:46.352Z,15.70
2018-09-13T00:22:13.916Z,15.40
2018-09-13T00:24:41.518Z,15.20
2018-09-13T00:27:09.281Z,15.30
2018-09-13T00:29:38.075Z,15.50
2018-09-13T00:32:05.813Z,15.50
2018-09-13T00:34:33.556Z,15.70
2018-09-13T00:37:01.277Z,15.70
2018-09-13T00:39:28.988Z,15.80
2018-09-13T00:41:56.691Z,15.90
2018-09-13T00:44:24.443Z,16.10
2018-09-13T00:46:52.140Z,16.20
2018-09-13T00:49:19.845Z,16.00
2018-09-13T00:51:47.563Z,15.90
2018-09-13T00:54:15.288Z,15.70
2018-09-13T00:56:43.028Z,15.60
2018-09-13T00:59:10.808Z,15.50
2018-09-13T01:01:38.466Z,15.70
2018-09-13T01:04:06.184Z,15.80
2018-09-13T01:06:33.908Z,15.90
2018-09-13T01:09:01.686Z,15.90
2018-09-13T01:11:29.393Z,16.00
2018-09-13T01:13:57.075Z,16.00
2018-09-13T01:16:24.817Z,15.90
2018-09-13T01:18:59.988Z,16.00
2018-09-13T01:21:27.632Z,16.00
2018-09-13T01:23:55.323Z,16.10
2018-09-13T01:26:23.020Z,16.00
2018-09-13T01:28:50.787Z,16.10
2018-09-13T01:31:18.480Z,16.20
2018-09-13T01:33:46.213Z,16.30
2018-09-13T01:36:13.891Z,16.40
2018-09-13T01:38:50.660Z,16.40
2018-09-13T01:41:18.512Z,16.50
2018-09-13T01:43:46.192Z,16.50
2018-09-13T01:46:13.916Z,16.50
2018-09-13T01:48:41.676Z,16.60
2018-09-13T01:51:09.371Z,16.60
2018-09-13T01:53:37.063Z,16.60
2018-09-13T01:56:04.808Z,16.60
2018-09-13T01:58:33.524Z,16.70
2018-09-13T02:01:01.228Z,16.70
2018-09-13T02:03:28.927Z,16.70
2018-09-13T02:05:56.612Z,16.70
2018-09-13T02:08:26.313Z,16.70
2018-09-13T02:10:54.043Z,16.70
2018-09-13T02:13:21.848Z,16.70
2018-09-13T02:15:49.707Z,16.70
2018-09-13T02:18:23.112Z,16.60
2018-09-13T02:20:50.869Z,16.50
2018-09-13T02:23:18.569Z,16.40
2018-09-13T02:25:46.301Z,16.20
2018-09-13T02:28:13.984Z,16.20
2018-09-13T02:30:41.706Z,16.20
2018-09-13T02:33:09.377Z,16.20
2018-09-13T02:35:37.084Z,16.10
2018-09-13T02:38:04.846Z,16.10
2018-09-13T02:40:46.268Z,16.10
2018-09-13T02:43:13.882Z,16.10
2018-09-13T02:45:41.399Z,16.10
2018-09-13T02:48:08.965Z,16.10
2018-09-13T02:50:47.653Z,15.90
2018-09-13T02:53:15.173Z,15.90
2018-09-13T02:55:42.805Z,15.70
2018-09-13T02:58:10.503Z,15.70
2018-09-13T03:00:40.288Z,15.70
2018-09-13T03:03:07.979Z,15.60
2018-09-13T03:05:35.708Z,15.70
2018-09-13T03:08:03.384Z,15.70
2018-09-13T03:10:31.057Z,15.70
2018-09-13T03:12:58.723Z,15.60
2018-09-13T03:15:26.428Z,15.60
2018-09-13T03:17:54.136Z,15.60
2018-09-13T03:20:21.923Z,15.60
2018-09-13T03:22:49.663Z,15.60
2018-09-13T03:25:18.183Z,15.60
2018-09-13T03:27:45.916Z,15.60
2018-09-13T03:30:31.112Z,15.30
2018-09-13T03:32:58.871Z,15.30
2018-09-13T03:35:26.539Z,15.20
2018-09-13T03:37:54.328Z,15.20
2018-09-13T03:40:22.139Z,15.30
2018-09-13T03:42:49.892Z,15.20
2018-09-13T03:45:17.609Z,15.20
2018-09-13T03:47:45.322Z,15.30
2018-09-13T03:50:25.711Z,15.30
2018-09-13T03:52:53.472Z,15.40
2018-09-13T03:55:21.183Z,15.40
2018-09-13T03:57:48.882Z,15.40
2018-09-13T04:00:25.248Z,15.40
2018-09-13T04:02:52.965Z,15.40
2018-09-13T04:05:20.708Z,15.40
2018-09-13T04:07:48.399Z,15.30
2018-09-13T04:10:16.173Z,15.10
2018-09-13T04:12:43.867Z,15.00
2018-09-13T04:15:11.493Z,15.00
2018-09-13T04:17:39.125Z,15.00
2018-09-13T04:20:10.697Z,15.10
2018-09-13T04:22:38.434Z,15.10
2018-09-13T04:25:06.072Z,15.10
2018-09-13T04:27:33.727Z,15.10
2018-09-13T04:30:06.440Z,14.90
2018-09-13T04:32:34.365Z,14.80
2018-09-13T04:35:01.992Z,14.90
2018-09-13T04:37:29.660Z,14.90
2018-09-13T04:40:02.070Z,14.90
2018-09-13T04:42:29.735Z,14.70
2018-09-13T04:44:57.376Z,14.70
2018-09-13T04:47:25.132Z,14.80
2018-09-13T04:50:03.233Z,14.80
2018-09-13T04:52:30.927Z,14.90
2018-09-13T04:54:58.660Z,15.00
2018-09-13T04:57:26.183Z,15.10
2018-09-13T05:00:01.816Z,15.10
2018-09-13T05:02:29.323Z,15.00
2018-09-13T05:04:56.927Z,15.10
2018-09-13T05:07:24.435Z,14.90
2018-09-13T05:10:00.694Z,15.00
2018-09-13T05:12:28.255Z,14.90
2018-09-13T05:14:55.808Z,14.80
2018-09-13T05:17:23.320Z,14.70
2018-09-13T05:19:58.551Z,14.80
2018-09-13T05:22:26.163Z,14.90
2018-09-13T05:24:53.707Z,14.70
2018-09-13T05:27:21.239Z,14.70
2018-09-13T05:29:56.011Z,14.70
2018-09-13T05:32:23.515Z,14.70
2018-09-13T05:34:51.036Z,14.80
2018-09-13T05:37:19.400Z,14.80
2018-09-13T05:39:47.047Z,14.90
2018-09-13T05:42:14.591Z,15.00
2018-09-13T05:44:42.206Z,15.10
2018-09-13T05:47:09.647Z,15.30
2018-09-13T05:49:38.296Z,15.30
2018-09-13T05:52:05.831Z,15.30
2018-09-13T05:54:33.391Z,15.40
2018-09-13T05:57:00.918Z,15.40
2018-09-13T05:59:30.487Z,15.40
2018-09-13T06:01:58.010Z,15.50
2018-09-13T06:04:25.547Z,15.50
2018-09-13T06:06:53.788Z,15.50
2018-09-13T06:09:21.415Z,15.50
2018-09-13T06:11:48.928Z,15.60
2018-09-13T06:14:16.471Z,15.70
2018-09-13T06:16:43.996Z,15.80
2018-09-13T06:19:15.227Z,15.90
2018-09-13T06:21:42.743Z,15.90
2018-09-13T06:24:10.287Z,16.00
2018-09-13T06:26:37.815Z,16.00
2018-09-13T06:29:09.062Z,16.30
2018-09-13T06:31:36.591Z,16.60
2018-09-13T06:34:04.175Z,16.70
2018-09-13T06:36:31.750Z,16.60
2018-09-13T06:39:03.851Z,16.60
2018-09-13T06:41:31.352Z,16.90
2018-09-13T06:43:58.855Z,17.20
2018-09-13T06:46:26.488Z,17.30
2018-09-13T06:48:55.204Z,17.40
2018-09-13T06:51:22.844Z,17.60
2018-09-13T06:53:50.551Z,17.70
2018-09-13T06:56:18.240Z,17.70
2018-09-13T06:58:47.012Z,17.60
2018-09-13T07:01:14.780Z,17.70
2018-09-13T07:03:42.446Z,17.70
2018-09-13T07:06:10.181Z,17.80
2018-09-13T07:08:39.981Z,17.90
2018-09-13T07:11:07.769Z,17.90
2018-09-13T07:13:35.481Z,17.80
2018-09-13T07:16:03.230Z,17.90
2018-09-13T07:18:31.912Z,17.90
2018-09-13T07:20:59.592Z,17.50
2018-09-13T07:23:27.356Z,17.50
2018-09-13T07:25:55.091Z,17.80
2018-09-13T07:28:23.803Z,18.00
2018-09-13T07:30:51.568Z,18.20
2018-09-13T07:33:19.990Z,18.30
2018-09-13T07:35:47.743Z,18.40
2018-09-13T07:38:15.472Z,18.40
2018-09-13T07:40:43.176Z,18.40
2018-09-13T07:43:10.888Z,18.10
2018-09-13T07:45:38.540Z,18.00
2018-09-13T07:48:06.195Z,17.70
2018-09-13T07:50:37.672Z,17.90
2018-09-13T07:53:05.409Z,18.10
2018-09-13T07:55:33.164Z,18.30
2018-09-13T07:58:00.887Z,18.30
2018-09-13T08:00:28.835Z,18.30
2018-09-13T08:02:56.556Z,18.50
2018-09-13T08:05:24.265Z,18.60
2018-09-13T08:07:51.936Z,18.60
2018-09-13T08:10:29.628Z,18.50
2018-09-13T08:12:57.488Z,18.30
2018-09-13T08:15:25.220Z,18.40
2018-09-13T08:17:52.908Z,18.60
2018-09-13T08:20:21.611Z,18.50
2018-09-13T08:22:49.259Z,18.30
2018-09-13T08:25:16.974Z,18.20
2018-09-13T08:27:44.739Z,18.50
2018-09-13T08:30:13.540Z,18.60
2018-09-13T08:32:41.196Z,19.00
2018-09-13T08:35:08.911Z,19.20
2018-09-13T08:37:36.540Z,18.90
2018-09-13T08:40:04.245Z,18.70
2018-09-13T08:42:32.036Z,18.80
2018-09-13T08:44:59.771Z,19.10
2018-09-13T08:47:27.425Z,19.50
2018-09-13T08:49:55.201Z,19.90
2018-09-13T08:54:50.064Z,20.40
2018-09-13T08:57:17.659Z,20.70
2018-09-13T08:59:45.396Z,20.90
2018-09-13T09:02:13.139Z,21.10
2018-09-13T09:04:40.732Z,21.10
2018-09-13T09:07:08.486Z,21.70
2018-09-13T09:09:40.215Z,21.50
2018-09-13T09:12:07.845Z,21.70
2018-09-13T09:14:35.547Z,21.80
2018-09-13T09:17:03.440Z,22.00
2018-09-13T09:19:35.612Z,22.10
2018-09-13T09:22:03.423Z,22.20
2018-09-13T09:24:31.107Z,22.30
2018-09-13T09:26:58.855Z,21.40
2018-09-13T09:29:28.768Z,21.80
2018-09-13T09:31:56.534Z,22.10
2018-09-13T09:34:24.393Z,21.90
2018-09-13T09:36:52.371Z,21.80
2018-09-13T09:39:31.832Z,21.80
2018-09-13T09:41:59.548Z,22.10
2018-09-13T09:49:24.108Z,23.10
2018-09-13T09:54:19.353Z,23.10
2018-09-13T09:56:47.049Z,23.40
2018-09-13T09:59:18.395Z,23.20
2018-09-13T10:01:51.487Z,22.80
2018-09-13T10:06:46.717Z,22.60
2018-09-13T10:14:22.965Z,23.60
2018-09-13T10:16:56.044Z,24.00
2018-09-13T10:19:30.275Z,24.20
2018-09-13T10:22:03.528Z,24.00
2018-09-13T10:24:36.684Z,23.90
2018-09-13T10:27:09.883Z,23.60
2018-09-13T10:29:44.248Z,23.00
2018-09-13T10:32:17.317Z,23.10
2018-09-13T10:34:50.520Z,23.50
2018-09-13T10:37:23.612Z,23.80
2018-09-13T10:39:57.828Z,23.60
2018-09-13T10:42:31.008Z,24.10
2018-09-13T10:45:04.209Z,23.70
2018-09-13T10:47:42.163Z,23.70
2018-09-13T10:50:12.645Z,23.80
2018-09-13T10:52:42.995Z,24.10
2018-09-13T10:55:10.758Z,24.40
2018-09-13T10:57:42.099Z,24.50
2018-09-13T11:00:31.424Z,24.20
2018-09-13T11:03:01.368Z,24.10
2018-09-13T11:05:29.188Z,23.40
2018-09-13T11:07:56.852Z,23.60
2018-09-13T11:10:24.620Z,23.50
2018-09-13T11:12:57.257Z,24.40
2018-09-13T11:15:30.666Z,24.90
2018-09-13T11:17:58.383Z,24.50
2018-09-13T11:20:42.644Z,24.60
2018-09-13T11:23:10.316Z,24.80
2018-09-13T11:25:38.028Z,23.90
2018-09-13T11:28:05.718Z,24.00
2018-09-13T11:30:34.503Z,23.70
2018-09-13T11:33:04.037Z,23.80
2018-09-13T11:35:31.700Z,23.50
2018-09-13T11:37:59.387Z,24.00
2018-09-13T11:40:29.296Z,24.00
2018-09-13T11:42:56.824Z,24.40
2018-09-13T11:45:24.527Z,24.30
2018-09-13T11:47:52.195Z,24.50
2018-09-13T11:50:19.994Z,24.30
2018-09-13T11:52:47.688Z,24.50
2018-09-13T11:55:15.379Z,24.30
2018-09-13T11:57:43.092Z,24.50
2018-09-13T12:00:15.947Z,24.30
2018-09-13T12:02:43.958Z,23.80
2018-09-13T12:05:11.522Z,24.10
2018-09-13T12:07:39.092Z,24.40
2018-09-13T12:10:11.000Z,24.70
2018-09-13T12:12:38.801Z,24.60
2018-09-13T12:15:07.484Z,24.80
2018-09-13T12:17:35.220Z,24.90
2018-09-13T12:20:05.316Z,24.30
2018-09-13T12:22:33.012Z,25.10
2018-09-13T12:25:00.700Z,25.20
2018-09-13T12:27:28.419Z,25.40
2018-09-13T12:29:56.071Z,25.70
2018-09-13T12:32:24.104Z,26.40
2018-09-13T12:37:19.307Z,27.10
2018-09-13T12:39:49.148Z,26.50
2018-09-13T12:49:41.314Z,27.30
2018-09-13T12:54:37.244Z,27.80
2018-09-13T12:57:05.050Z,27.20
2018-09-13T12:59:40.688Z,31.00
2018-09-13T13:04:37.993Z,27.90
2018-09-13T13:07:05.857Z,29.10
2018-09-13T13:09:35.697Z,30.10
2018-09-13T13:12:03.596Z,29.30
2018-09-13T13:14:31.319Z,27.90
2018-09-13T13:17:06.253Z,27.90
2018-09-13T13:19:35.083Z,28.00
2018-09-13T13:22:02.847Z,28.60
2018-09-13T13:24:30.600Z,28.70
2018-09-13T13:26:58.326Z,28.50
2018-09-13T13:36:48.188Z,28.30
2018-09-13T13:44:14.780Z,28.90
2018-09-13T13:46:42.468Z,28.30
2018-09-13T13:51:37.593Z,26.70
2018-09-13T13:54:05.258Z,27.20
2018-09-13T13:59:18.796Z,27.20
2018-09-13T14:01:46.585Z,27.80
2018-09-13T14:09:13.693Z,32.40
2018-09-13T14:11:41.552Z,32.70
2018-09-13T14:14:09.248Z,32.20
2018-09-13T14:16:37.168Z,31.60
2018-09-13T14:23:59.660Z,29.70
2018-09-13T14:33:49.652Z,26.90
2018-09-13T14:48:34.675Z,25.30
2018-09-13T14:55:57.100Z,24.80
2018-09-13T14:58:24.739Z,24.40
2018-09-13T15:01:02.183Z,25.00
2018-09-13T15:03:29.797Z,24.70
2018-09-13T15:05:57.520Z,24.70
2018-09-13T15:08:25.227Z,24.70
2018-09-13T15:10:54.175Z,24.80
2018-09-13T15:13:21.864Z,25.00
2018-09-13T15:15:49.626Z,25.10
2018-09-13T15:18:17.296Z,25.30
2018-09-13T15:20:47.064Z,25.40
2018-09-13T15:30:37.013Z,25.40
2018-09-13T15:33:04.729Z,25.50
2018-09-13T15:35:32.408Z,24.80
2018-09-13T15:38:00.124Z,24.60
2018-09-13T15:40:30.025Z,24.90
2018-09-13T15:42:57.651Z,24.70
2018-09-13T15:45:25.361Z,24.60
2018-09-13T15:47:53.015Z,24.40
2018-09-13T15:52:50.213Z,24.40
2018-09-13T15:55:17.940Z,24.10
2018-09-13T15:57:45.612Z,23.90
2018-09-13T16:00:13.350Z,24.00
2018-09-13T16:02:41.096Z,23.80
2018-09-13T16:05:08.737Z,23.80
2018-09-13T16:07:36.528Z,23.80
2018-09-13T16:10:17.027Z,23.80
2018-09-13T16:12:44.744Z,23.60
2018-09-13T16:15:12.335Z,23.60
2018-09-13T16:17:40.092Z,23.50
2018-09-13T16:20:09.792Z,23.60
2018-09-13T16:22:37.484Z,23.50
2018-09-13T16:25:05.160Z,23.40
2018-09-13T16:27:32.860Z,23.40
2018-09-13T16:30:00.617Z,23.30
2018-09-13T16:32:28.284Z,23.30
2018-09-13T16:37:28.756Z,23.00
2018-09-13T16:42:51.028Z,22.90
2018-09-13T16:45:18.784Z,22.80
2018-09-13T16:47:51.817Z,22.80
2018-09-13T16:50:19.501Z,22.80
2018-09-13T16:52:47.263Z,22.70
2018-09-13T16:55:15.034Z,22.60
2018-09-13T16:57:42.687Z,22.50
2018-09-13T17:00:14.935Z,22.40
2018-09-13T17:02:42.696Z,22.30
2018-09-13T17:05:10.464Z,22.30
2018-09-13T17:07:38.173Z,22.20
2018-09-13T17:10:14.969Z,22.20
2018-09-13T17:12:42.607Z,22.10
2018-09-13T17:15:10.356Z,22.10
2018-09-13T17:22:32.894Z,22.00
2018-09-13T17:25:00.614Z,22.00
2018-09-13T17:27:28.368Z,21.90
2018-09-13T17:29:57.160Z,21.80
2018-09-13T17:32:24.827Z,21.80
2018-09-13T17:34:52.616Z,21.70
2018-09-13T17:39:47.817Z,21.60
2018-09-13T17:42:15.596Z,21.50
2018-09-13T17:44:43.272Z,21.30
2018-09-13T17:47:10.992Z,21.20
2018-09-13T17:49:39.757Z,21.00
2018-09-13T17:57:02.730Z,20.80
2018-09-13T18:04:37.183Z,20.50
2018-09-13T18:07:04.888Z,20.40
2018-09-13T18:09:38.637Z,20.30
2018-09-13T18:12:06.204Z,20.30
2018-09-13T18:14:33.900Z,20.30
2018-09-13T18:17:01.553Z,20.30
2018-09-13T18:19:29.319Z,20.30
2018-09-13T18:21:58.121Z,20.10
2018-09-13T18:24:25.803Z,20.00
2018-09-13T18:26:53.440Z,19.90
2018-09-13T18:29:22.213Z,19.90
2018-09-13T18:31:49.895Z,19.80
2018-09-13T18:34:17.853Z,19.60
2018-09-13T18:36:45.528Z,19.60
2018-09-13T18:39:13.306Z,19.60
2018-09-13T18:41:40.974Z,19.60
2018-09-13T18:44:08.629Z,19.60
2018-09-13T18:46:36.303Z,19.40
2018-09-13T18:49:04.059Z,19.50
2018-09-13T18:51:32.059Z,19.40
2018-09-13T18:53:59.762Z,19.40
2018-09-13T18:56:27.512Z,19.20
2018-09-13T18:58:55.429Z,19.00
2018-09-13T19:01:23.180Z,18.90
2018-09-13T19:03:50.939Z,18.90
2018-09-13T19:06:18.688Z,18.90
2018-09-13T19:08:46.423Z,18.80
2018-09-13T19:11:14.175Z,18.90
2018-09-13T19:13:41.932Z,18.90
2018-09-13T19:18:37.024Z,18.40
2018-09-13T19:21:04.742Z,18.30
2018-09-13T19:23:32.545Z,18.30
2018-09-13T19:26:00.240Z,18.10
2018-09-13T19:28:28.204Z,18.10
2018-09-13T19:30:57.052Z,18.30
2018-09-13T19:33:24.727Z,18.30
2018-09-13T19:35:52.771Z,18.20
2018-09-13T19:38:28.424Z,18.20
2018-09-13T19:41:06.177Z,18.20
2018-09-13T19:43:33.948Z,18.10
2018-09-13T19:46:01.704Z,18.10
2018-09-13T19:48:29.371Z,18.10
2018-09-13T19:50:57.253Z,18.10
2018-09-13T19:53:24.888Z,18.10
2018-09-13T19:55:52.546Z,17.90
2018-09-13T19:58:20.228Z,17.70
2018-09-13T20:00:50.202Z,17.40
2018-09-13T20:03:17.851Z,17.30
2018-09-13T20:05:45.534Z,17.40
2018-09-13T20:08:13.271Z,17.50
2018-09-13T20:10:48.696Z,17.50
2018-09-13T20:13:16.393Z,17.60
2018-09-13T20:15:44.134Z,17.60
2018-09-13T20:18:11.860Z,17.70
2018-09-13T20:20:40.553Z,17.60
2018-09-13T20:23:08.310Z,17.70
2018-09-13T20:25:35.915Z,17.80
2018-09-13T20:28:03.603Z,17.80
2018-09-13T20:30:38.455Z,17.60
2018-09-13T20:33:06.197Z,17.50
2018-09-13T20:35:33.888Z,17.50
2018-09-13T20:38:01.598Z,17.40
2018-09-13T20:40:41.954Z,17.60
2018-09-13T20:43:09.612Z,17.50
2018-09-13T20:45:37.450Z,17.60
2018-09-13T20:48:05.076Z,17.60
2018-09-13T20:50:40.605Z,17.60
2018-09-13T20:53:08.291Z,17.60
2018-09-13T20:55:36.008Z,17.50
2018-09-13T20:58:03.843Z,17.50
2018-09-13T21:00:32.544Z,17.50
2018-09-13T21:03:00.280Z,17.30
2018-09-13T21:05:27.931Z,17.30
2018-09-13T21:07:55.655Z,17.30
2018-09-13T21:10:36.437Z,17.40
2018-09-13T21:13:04.116Z,17.20
2018-09-13T21:15:31.787Z,17.20
2018-09-13T21:17:59.492Z,17.20
2018-09-13T21:20:28.740Z,17.20
2018-09-13T21:22:56.485Z,17.20
2018-09-13T21:25:24.178Z,17.10
2018-09-13T21:27:51.879Z,17.20
2018-09-13T21:30:21.604Z,17.20
2018-09-13T21:35:16.711Z,17.00
2018-09-13T21:37:44.496Z,17.10
2018-09-13T21:40:12.209Z,17.00
2018-09-13T21:42:39.920Z,17.00
2018-09-13T21:45:07.640Z,17.10
2018-09-13T21:47:35.458Z,17.00
2018-09-13T21:50:10.648Z,16.90
2018-09-13T21:52:38.311Z,16.90
2018-09-13T21:55:05.987Z,16.90
2018-09-13T21:57:33.691Z,16.80
2018-09-13T22:00:27.437Z,16.80
2018-09-13T22:02:55.104Z,16.70
2018-09-13T22:05:22.875Z,16.80
2018-09-13T22:07:50.616Z,16.80
2018-09-13T22:10:29.832Z,16.70
2018-09-13T22:12:57.519Z,16.50
2018-09-13T22:15:25.376Z,16.50
2018-09-13T22:17:53.069Z,16.50
2018-09-13T22:20:25.492Z,16.40
2018-09-13T22:22:53.219Z,16.30
2018-09-13T22:25:20.943Z,16.40
2018-09-13T22:27:48.636Z,16.50
2018-09-13T22:30:22.256Z,16.60
2018-09-13T22:32:49.871Z,16.60
2018-09-13T22:35:17.658Z,16.60
2018-09-13T22:37:45.303Z,16.50
2018-09-13T22:40:13.148Z,16.50
2018-09-13T22:42:40.891Z,16.50
2018-09-13T22:45:08.552Z,16.50
2018-09-13T22:47:36.259Z,16.60
2018-09-13T22:50:05.116Z,16.60
2018-09-13T22:52:32.821Z,16.60
2018-09-13T22:55:00.539Z,16.60
2018-09-13T22:57:28.251Z,16.60
2018-09-13T22:59:56.999Z,16.60
2018-09-13T23:02:24.732Z,16.60
2018-09-13T23:04:52.435Z,16.60
2018-09-13T23:07:20.204Z,16.50
2018-09-13T23:09:48.984Z,16.50
2018-09-13T23:12:16.679Z,16.40
2018-09-13T23:14:44.419Z,16.30
2018-09-13T23:17:12.084Z,16.20
2018-09-13T23:19:41.844Z,16.20
2018-09-13T23:22:10.435Z,16.20
2018-09-13T23:24:38.155Z,16.10
2018-09-13T23:27:05.900Z,16.20
2018-09-13T23:29:34.687Z,16.20
2018-09-13T23:32:02.405Z,16.20
2018-09-13T23:34:30.124Z,16.20
2018-09-13T23:36:57.832Z,16.10
2018-09-13T23:39:33.219Z,16.20
2018-09-13T23:42:00.586Z,16.10
2018-09-13T23:44:28.151Z,15.90
2018-09-13T23:46:55.804Z,15.90
2018-09-13T23:49:26.968Z,15.80
2018-09-13T23:51:54.636Z,15.80
2018-09-13T23:54:22.329Z,15.90
2018-09-13T23:56:49.987Z,16.00
2018-09-13T23:59:17.775Z,16.00
